createdAt,value
2023-04-23T00:01:57.668Z,70.91
2023-04-23T00:04:24.829Z,70.78
2023-04-23T00:06:51.743Z,71.07
2023-04-23T00:09:18.526Z,71.07
2023-04-23T00:11:45.362Z,71.02
2023-04-23T00:14:12.583Z,71.28
2023-04-23T00:16:39.825Z,70.83
2023-04-23T00:19:06.886Z,70.89
2023-04-23T00:21:33.824Z,70.78
2023-04-23T00:24:00.648Z,71.31
2023-04-23T00:26:27.374Z,71.16
2023-04-23T00:28:54.323Z,71.34
2023-04-23T00:31:22.819Z,71.11
2023-04-23T00:33:49.752Z,71.07
2023-04-23T00:36:16.577Z,71.09
2023-04-23T00:38:43.586Z,71.15
2023-04-23T00:41:11.109Z,71.20
2023-04-23T00:43:38.080Z,70.81
2023-04-23T00:46:05.323Z,70.82
2023-04-23T00:48:32.042Z,71.09
2023-04-23T00:51:00.556Z,70.87
2023-04-23T00:53:27.637Z,70.89
2023-04-23T00:55:54.755Z,71.00
2023-04-23T00:58:21.746Z,70.55
2023-04-23T01:00:52.351Z,71.07
2023-04-23T01:03:21.948Z,70.73
2023-04-23T01:05:49.531Z,70.99
2023-04-23T01:08:16.886Z,70.72
2023-04-23T01:10:47.442Z,71.18
2023-04-23T01:13:14.254Z,70.93
2023-04-23T01:15:41.182Z,70.86
2023-04-23T01:18:08.030Z,70.81
2023-04-23T01:20:35.512Z,70.92
2023-04-23T01:23:05.774Z,70.65
2023-04-23T01:25:32.739Z,70.96
2023-04-23T01:27:59.514Z,70.70
2023-04-23T01:30:27.415Z,70.92
2023-04-23T01:32:57.428Z,70.75
2023-04-23T01:35:24.534Z,70.71
2023-04-23T01:37:52.697Z,70.60
2023-04-23T01:40:20.370Z,70.83
2023-04-23T01:42:48.270Z,70.75
2023-04-23T01:45:15.162Z,70.45
2023-04-23T01:47:42.170Z,70.82
2023-04-23T01:50:09.536Z,70.59
2023-04-23T01:52:36.730Z,71.05
2023-04-23T01:55:03.816Z,70.92
2023-04-23T01:57:30.787Z,70.80
2023-04-23T02:00:09.524Z,71.07
2023-04-23T02:02:36.479Z,71.24
2023-04-23T02:05:04.821Z,70.79
2023-04-23T02:07:32.403Z,71.03
2023-04-23T02:09:59.215Z,70.79
2023-04-23T02:12:26.342Z,71.55
2023-04-23T02:14:53.666Z,71.20
2023-04-23T02:17:23.180Z,71.11
2023-04-23T02:19:50.212Z,71.16
2023-04-23T02:22:17.989Z,71.56
2023-04-23T02:24:44.716Z,71.42
2023-04-23T02:27:11.455Z,71.36
2023-04-23T02:29:38.447Z,71.62
2023-04-23T02:32:06.320Z,71.49
2023-04-23T02:34:33.231Z,71.73
2023-04-23T02:37:00.188Z,71.67
2023-04-23T02:39:26.939Z,71.86
2023-04-23T02:41:53.830Z,71.90
2023-04-23T02:44:20.847Z,71.81
2023-04-23T02:46:47.607Z,71.75
2023-04-23T02:49:14.852Z,71.90
2023-04-23T02:51:41.804Z,72.00
2023-04-23T02:54:08.570Z,72.45
2023-04-23T02:56:35.320Z,72.21
2023-04-23T02:59:02.215Z,72.72
2023-04-23T03:01:29.044Z,72.73
2023-04-23T03:03:55.972Z,72.89
2023-04-23T03:06:22.922Z,73.54
2023-04-23T03:08:49.657Z,73.09
2023-04-23T03:11:16.415Z,73.55
2023-04-23T03:13:43.300Z,73.71
2023-04-23T03:16:10.248Z,73.65
2023-04-23T03:18:37.150Z,73.71
2023-04-23T03:21:04.233Z,73.95
2023-04-23T03:23:30.976Z,73.76
2023-04-23T03:25:58.027Z,73.98
2023-04-23T03:28:25.128Z,74.01
2023-04-23T03:30:51.976Z,73.78
2023-04-23T03:33:18.766Z,74.14
2023-04-23T03:35:46.297Z,74.48
2023-04-23T03:38:13.102Z,74.10
2023-04-23T03:40:39.854Z,74.50
2023-04-23T03:43:06.765Z,74.38
2023-04-23T03:45:33.490Z,74.27
2023-04-23T03:48:00.258Z,74.35
2023-04-23T03:50:27.197Z,74.74
2023-04-23T03:52:54.053Z,74.41
2023-04-23T03:55:21.111Z,74.74
2023-04-23T03:57:48.013Z,75.06
2023-04-23T04:00:14.914Z,74.96
2023-04-23T04:02:41.929Z,74.91
2023-04-23T04:05:11.447Z,75.15
2023-04-23T04:07:38.409Z,74.72
2023-04-23T04:10:06.588Z,74.80
2023-04-23T04:12:33.474Z,75.00
2023-04-23T04:15:00.381Z,74.87
2023-04-23T04:17:27.125Z,74.95
2023-04-23T04:19:53.966Z,74.87
2023-04-23T04:22:20.822Z,74.66
2023-04-23T04:24:47.731Z,74.51
2023-04-23T04:27:15.011Z,74.44
2023-04-23T04:29:41.730Z,74.45
2023-04-23T04:32:09.433Z,74.56
2023-04-23T04:34:39.593Z,74.72
2023-04-23T04:37:06.804Z,74.48
2023-04-23T04:39:33.574Z,74.70
2023-04-23T04:42:03.016Z,75.53
2023-04-23T04:44:30.825Z,76.01
2023-04-23T04:46:57.851Z,77.11
2023-04-23T04:49:24.791Z,77.69
2023-04-23T04:51:51.503Z,78.31
2023-04-23T04:54:18.357Z,78.95
2023-04-23T04:56:45.259Z,79.30
2023-04-23T04:59:11.968Z,80.09
2023-04-23T05:01:38.674Z,80.61
2023-04-23T05:04:06.290Z,80.50
2023-04-23T05:06:33.468Z,81.15
2023-04-23T05:09:00.499Z,81.76
2023-04-23T05:11:27.598Z,81.68
2023-04-23T05:13:54.347Z,82.04
2023-04-23T05:16:21.512Z,82.72
2023-04-23T05:18:48.686Z,83.16
2023-04-23T05:21:15.705Z,83.33
2023-04-23T05:23:42.608Z,83.71
2023-04-23T05:26:09.357Z,84.39
2023-04-23T05:28:36.443Z,84.81
2023-04-23T05:31:03.693Z,85.12
2023-04-23T05:33:33.589Z,85.44
2023-04-23T05:36:03.205Z,85.99
2023-04-23T05:38:30.061Z,86.11
2023-04-23T05:40:56.862Z,86.44
2023-04-23T05:43:23.617Z,87.28
2023-04-23T05:45:50.484Z,88.08
2023-04-23T05:48:17.255Z,88.84
2023-04-23T05:50:44.080Z,89.43
2023-04-23T05:53:11.078Z,90.28
2023-04-23T05:55:37.864Z,90.55
2023-04-23T05:58:05.270Z,91.06
2023-04-23T06:00:32.663Z,91.73
2023-04-23T06:02:59.630Z,92.05
2023-04-23T06:05:26.627Z,92.25
2023-04-23T06:07:54.376Z,92.76
2023-04-23T06:10:21.127Z,92.76
2023-04-23T06:12:48.018Z,92.68
2023-04-23T06:15:14.901Z,93.08
2023-04-23T06:17:41.666Z,93.21
2023-04-23T06:20:10.912Z,93.49
2023-04-23T06:22:37.672Z,93.49
2023-04-23T06:25:05.705Z,93.29
2023-04-23T06:27:33.984Z,93.56
2023-04-23T06:30:00.878Z,93.63
2023-04-23T06:32:27.619Z,94.04
2023-04-23T06:35:00.702Z,94.40
2023-04-23T06:37:29.764Z,94.13
2023-04-23T06:39:57.011Z,94.18
2023-04-23T06:42:23.856Z,94.65
2023-04-23T06:44:52.111Z,94.53
2023-04-23T06:47:19.815Z,94.48
2023-04-23T06:49:46.583Z,94.66
2023-04-23T06:52:13.425Z,95.13
2023-04-23T06:54:40.449Z,95.46
2023-04-23T06:57:07.348Z,95.20
2023-04-23T06:59:34.142Z,95.40
2023-04-23T07:02:01.104Z,95.29
2023-04-23T07:04:28.052Z,95.40
2023-04-23T07:06:55.453Z,95.24
2023-04-23T07:09:23.382Z,95.32
2023-04-23T07:11:50.348Z,95.79
2023-04-23T07:14:17.210Z,95.98
2023-04-23T07:16:44.213Z,96.40
2023-04-23T07:19:11.003Z,96.51
2023-04-23T07:21:37.704Z,97.10
2023-04-23T07:24:07.428Z,97.89
2023-04-23T07:26:34.911Z,98.74
2023-04-23T07:29:02.013Z,98.41
2023-04-23T07:31:28.968Z,98.01
2023-04-23T07:33:56.340Z,97.87
2023-04-23T07:36:23.226Z,97.53
2023-04-23T07:38:51.271Z,97.73
2023-04-23T07:41:18.496Z,97.67
2023-04-23T07:43:45.412Z,97.64
2023-04-23T07:46:12.491Z,97.24
2023-04-23T07:48:39.576Z,97.83
2023-04-23T07:51:06.828Z,98.54
2023-04-23T07:53:33.839Z,98.28
2023-04-23T07:56:00.662Z,98.45
2023-04-23T07:58:27.499Z,98.27
2023-04-23T08:00:54.404Z,97.80
2023-04-23T08:03:21.346Z,97.32
2023-04-23T08:05:48.282Z,96.36
2023-04-23T08:08:15.175Z,95.56
2023-04-23T08:10:42.041Z,95.26
2023-04-23T08:13:08.909Z,94.92
2023-04-23T08:15:36.270Z,94.76
2023-04-23T08:18:04.427Z,94.62
2023-04-23T08:20:32.545Z,94.73
2023-04-23T08:22:59.685Z,95.21
2023-04-23T08:25:26.600Z,95.53
2023-04-23T08:27:53.377Z,95.61
2023-04-23T08:30:20.610Z,96.00
2023-04-23T08:32:51.146Z,96.29
2023-04-23T08:35:18.206Z,96.30
2023-04-23T08:37:45.347Z,96.79
2023-04-23T08:40:13.233Z,96.67
2023-04-23T08:42:51.601Z,97.39
2023-04-23T08:45:18.797Z,97.90
2023-04-23T08:47:45.713Z,98.47
2023-04-23T08:50:13.878Z,98.52
2023-04-23T08:52:42.071Z,98.75
2023-04-23T08:55:12.323Z,98.90
2023-04-23T08:57:40.167Z,99.22
2023-04-23T09:00:11.106Z,99.33
2023-04-23T09:02:40.106Z,99.39
2023-04-23T09:05:07.393Z,99.09
2023-04-23T09:07:34.957Z,99.02
2023-04-23T09:10:02.945Z,99.58
2023-04-23T09:12:29.942Z,99.78
2023-04-23T09:14:56.686Z,100.00
2023-04-23T09:17:23.876Z,100.00
2023-04-23T09:19:54.123Z,100.00
2023-04-23T09:22:46.572Z,99.51
2023-04-23T09:25:15.616Z,99.44
2023-04-23T09:27:42.420Z,100.00
2023-04-23T09:30:10.966Z,100.00
2023-04-23T09:32:42.805Z,100.00
2023-04-23T09:35:10.801Z,100.00
2023-04-23T09:37:37.667Z,100.00
2023-04-23T09:40:08.804Z,100.00
2023-04-23T09:42:36.059Z,100.00
2023-04-23T09:45:11.629Z,100.00
2023-04-23T09:47:39.190Z,100.00
2023-04-23T09:50:10.490Z,100.00
2023-04-23T09:52:40.539Z,100.00
2023-04-23T09:55:08.129Z,100.00
2023-04-23T09:57:41.721Z,100.00
2023-04-23T10:00:20.017Z,100.00
2023-04-23T10:02:49.470Z,100.00
2023-04-23T10:07:50.182Z,100.00
2023-04-23T10:10:18.441Z,100.00
2023-04-23T10:12:54.398Z,100.00
2023-04-23T10:15:22.305Z,100.00
2023-04-23T10:17:51.320Z,100.00
2023-04-23T10:20:18.464Z,100.00
2023-04-23T10:22:46.782Z,98.93
2023-04-23T10:25:13.650Z,97.47
2023-04-23T10:27:52.820Z,97.01
2023-04-23T10:30:21.410Z,96.96
2023-04-23T10:32:48.964Z,96.74
2023-04-23T10:35:15.799Z,97.39
2023-04-23T10:37:43.012Z,97.50
2023-04-23T10:40:14.239Z,98.38
2023-04-23T10:42:41.460Z,98.44
2023-04-23T10:47:48.876Z,99.15
2023-04-23T10:50:26.573Z,99.53
2023-04-23T10:52:54.455Z,99.87
2023-04-23T10:55:22.993Z,100.00
2023-04-23T10:58:06.273Z,100.00
2023-04-23T11:00:44.112Z,100.00
2023-04-23T11:03:31.623Z,100.00
2023-04-23T11:06:04.443Z,100.00
2023-04-23T11:08:34.376Z,100.00
2023-04-23T11:11:02.167Z,100.00
2023-04-23T11:13:29.774Z,100.00
2023-04-23T11:16:22.138Z,100.00
2023-04-23T11:19:06.509Z,100.00
2023-04-23T11:22:01.311Z,100.00
2023-04-23T11:24:37.173Z,100.00
2023-04-23T11:27:06.464Z,100.00
2023-04-23T11:29:33.690Z,100.00
2023-04-23T11:32:03.909Z,100.00
2023-04-23T11:34:31.904Z,100.00
2023-04-23T11:36:59.413Z,100.00
2023-04-23T11:39:27.366Z,100.00
2023-04-23T11:41:54.846Z,100.00
2023-04-23T11:44:21.918Z,100.00
2023-04-23T11:46:49.721Z,100.00
2023-04-23T11:49:19.905Z,100.00
2023-04-23T11:51:46.850Z,99.81
2023-04-23T11:54:13.970Z,99.62
2023-04-23T11:56:41.348Z,99.44
2023-04-23T11:59:08.255Z,99.49
2023-04-23T12:01:48.448Z,99.73
2023-04-23T12:04:17.140Z,100.00
2023-04-23T12:06:44.958Z,100.00
2023-04-23T12:09:13.191Z,100.00
2023-04-23T12:11:41.387Z,100.00
2023-04-23T12:14:08.755Z,100.00
2023-04-23T12:16:39.766Z,100.00
2023-04-23T12:19:17.280Z,100.00
2023-04-23T12:22:08.868Z,100.00
2023-04-23T12:24:52.342Z,100.00
2023-04-23T12:27:20.634Z,100.00
2023-04-23T12:29:51.288Z,100.00
2023-04-23T12:32:19.372Z,99.56
2023-04-23T12:34:55.933Z,99.14
2023-04-23T12:37:30.318Z,98.77
2023-04-23T12:39:59.578Z,98.55
2023-04-23T12:42:26.314Z,100.00
2023-04-23T12:44:55.856Z,100.00
2023-04-23T12:47:22.970Z,100.00
2023-04-23T12:49:53.309Z,100.00
2023-04-23T12:52:21.214Z,100.00
2023-04-23T12:54:52.324Z,100.00
2023-04-23T12:57:23.118Z,100.00
2023-04-23T12:59:50.433Z,99.37
2023-04-23T13:02:17.378Z,99.95
2023-04-23T13:04:44.174Z,99.92
2023-04-23T13:07:10.915Z,98.84
2023-04-23T13:09:37.750Z,95.78
2023-04-23T13:12:04.635Z,95.09
2023-04-23T13:14:32.510Z,95.90
2023-04-23T13:16:59.508Z,97.57
2023-04-23T13:19:26.503Z,97.72
2023-04-23T13:21:53.881Z,96.45
2023-04-23T13:24:20.871Z,95.63
2023-04-23T13:26:47.592Z,93.07
2023-04-23T13:29:14.454Z,92.98
2023-04-23T13:31:41.388Z,92.82
2023-04-23T13:34:08.917Z,93.55
2023-04-23T13:36:35.759Z,93.70
2023-04-23T13:39:03.236Z,92.75
2023-04-23T13:41:30.164Z,92.40
2023-04-23T13:43:56.926Z,92.58
2023-04-23T13:46:23.775Z,91.96
2023-04-23T13:48:50.632Z,91.37
2023-04-23T13:51:33.097Z,91.30
2023-04-23T13:54:01.529Z,89.74
2023-04-23T13:56:30.247Z,89.26
2023-04-23T14:01:32.091Z,88.32
2023-04-23T14:03:58.979Z,87.30
2023-04-23T14:06:25.988Z,87.95
2023-04-23T14:08:52.774Z,86.74
2023-04-23T14:11:19.551Z,87.14
2023-04-23T14:13:46.412Z,87.15
2023-04-23T14:16:13.184Z,86.66
2023-04-23T14:18:39.955Z,85.40
2023-04-23T14:21:07.594Z,85.28
2023-04-23T14:23:44.361Z,85.30
2023-04-23T14:26:11.209Z,84.67
2023-04-23T14:28:44.908Z,84.50
2023-04-23T14:31:11.827Z,84.13
2023-04-23T14:33:38.578Z,83.37
2023-04-23T14:36:05.429Z,82.88
2023-04-23T14:38:32.269Z,83.73
2023-04-23T14:40:59.002Z,84.04
2023-04-23T14:43:25.884Z,84.30
2023-04-23T14:45:52.899Z,84.29
2023-04-23T14:48:19.889Z,84.00
2023-04-23T14:50:46.619Z,83.90
2023-04-23T14:53:13.609Z,84.35
2023-04-23T14:55:42.912Z,84.29
2023-04-23T14:58:09.841Z,84.82
2023-04-23T15:00:36.667Z,85.33
2023-04-23T15:03:08.524Z,85.75
2023-04-23T15:05:35.541Z,85.96
2023-04-23T15:08:02.348Z,85.79
2023-04-23T15:10:29.634Z,85.18
2023-04-23T15:13:10.182Z,84.45
2023-04-23T15:15:49.936Z,84.72
2023-04-23T15:18:17.317Z,85.17
2023-04-23T15:20:44.576Z,84.73
2023-04-23T15:23:11.953Z,83.83
2023-04-23T15:25:39.538Z,83.00
2023-04-23T15:28:07.357Z,82.19
2023-04-23T15:30:34.201Z,81.75
2023-04-23T15:33:01.147Z,80.95
2023-04-23T15:35:28.289Z,80.11
2023-04-23T15:37:55.111Z,79.33
2023-04-23T15:40:21.924Z,78.61
2023-04-23T15:42:50.186Z,78.20
2023-04-23T15:45:17.293Z,77.81
2023-04-23T15:47:44.310Z,77.91
2023-04-23T15:50:11.760Z,77.58
2023-04-23T15:52:39.753Z,77.15
2023-04-23T15:55:07.049Z,76.61
2023-04-23T15:57:33.886Z,76.31
2023-04-23T16:00:01.445Z,76.33
2023-04-23T16:02:29.077Z,76.56
2023-04-23T16:04:56.497Z,76.68
2023-04-23T16:07:23.384Z,76.48
2023-04-23T16:09:50.262Z,75.93
2023-04-23T16:12:17.257Z,75.31
2023-04-23T16:14:45.828Z,75.27
2023-04-23T16:17:12.589Z,75.21
2023-04-23T16:19:40.521Z,75.02
2023-04-23T16:22:07.471Z,74.86
2023-04-23T16:24:34.833Z,74.72
2023-04-23T16:27:02.684Z,75.17
2023-04-23T16:29:29.565Z,75.01
2023-04-23T16:31:56.349Z,74.93
2023-04-23T16:34:23.209Z,74.53
2023-04-23T16:36:49.923Z,74.18
2023-04-23T16:39:16.701Z,73.85
2023-04-23T16:41:43.630Z,73.58
2023-04-23T16:44:10.398Z,73.68
2023-04-23T16:46:37.405Z,73.47
2023-04-23T16:49:04.326Z,73.34
2023-04-23T16:51:32.433Z,73.85
2023-04-23T16:53:59.319Z,73.42
2023-04-23T16:56:26.293Z,73.11
2023-04-23T16:58:53.174Z,73.08
2023-04-23T17:01:19.939Z,73.24
2023-04-23T17:03:47.186Z,73.31
2023-04-23T17:06:29.402Z,72.94
2023-04-23T17:09:00.316Z,72.77
2023-04-23T17:11:27.914Z,72.79
2023-04-23T17:13:54.991Z,72.94
2023-04-23T17:16:21.901Z,72.91
2023-04-23T17:18:48.821Z,72.89
2023-04-23T17:21:15.685Z,72.99
2023-04-23T17:23:42.538Z,73.25
2023-04-23T17:26:09.454Z,73.30
2023-04-23T17:28:36.270Z,73.12
2023-04-23T17:31:03.577Z,73.22
2023-04-23T17:33:30.426Z,73.35
2023-04-23T17:35:57.331Z,73.33
2023-04-23T17:38:24.843Z,73.37
2023-04-23T17:40:54.603Z,73.49
2023-04-23T17:43:21.826Z,73.46
2023-04-23T17:45:48.835Z,73.46
2023-04-23T17:48:16.071Z,73.57
2023-04-23T17:50:43.035Z,73.73
2023-04-23T17:53:10.292Z,73.80
2023-04-23T17:55:37.041Z,74.06
2023-04-23T17:58:05.932Z,74.08
2023-04-23T18:00:37.510Z,73.90
2023-04-23T18:03:04.717Z,73.90
2023-04-23T18:05:31.728Z,73.93
2023-04-23T18:07:58.508Z,74.08
2023-04-23T18:10:25.412Z,74.05
2023-04-23T18:12:52.373Z,74.37
2023-04-23T18:15:19.490Z,74.31
2023-04-23T18:17:47.507Z,74.10
2023-04-23T18:20:14.618Z,73.72
2023-04-23T18:22:41.739Z,73.59
2023-04-23T18:25:10.166Z,73.64
2023-04-23T18:27:37.071Z,74.20
2023-04-23T18:30:05.710Z,74.30
2023-04-23T18:32:37.485Z,74.73
2023-04-23T18:35:08.284Z,74.96
2023-04-23T18:37:48.314Z,75.45
2023-04-23T18:40:15.237Z,76.00
2023-04-23T18:42:42.110Z,76.58
2023-04-23T18:45:10.797Z,77.45
2023-04-23T18:47:45.431Z,78.29
2023-04-23T18:50:37.219Z,79.45
2023-04-23T18:53:04.712Z,80.33
2023-04-23T18:55:31.581Z,81.19
2023-04-23T18:57:59.033Z,81.57
2023-04-23T19:00:25.956Z,82.17
2023-04-23T19:02:52.840Z,82.56
2023-04-23T19:05:20.084Z,83.04
2023-04-23T19:07:48.505Z,83.29
2023-04-23T19:10:16.793Z,83.79
2023-04-23T19:12:44.355Z,83.94
2023-04-23T19:15:11.607Z,84.52
2023-04-23T19:17:38.721Z,84.90
2023-04-23T19:20:09.712Z,85.06
2023-04-23T19:22:36.865Z,85.85
2023-04-23T19:25:04.699Z,85.96
2023-04-23T19:27:31.535Z,86.24
2023-04-23T19:29:59.304Z,86.19
2023-04-23T19:32:26.202Z,86.36
2023-04-23T19:34:53.077Z,86.41
2023-04-23T19:37:19.880Z,86.72
2023-04-23T19:39:46.630Z,86.87
2023-04-23T19:42:13.516Z,87.15
2023-04-23T19:44:40.248Z,86.92
2023-04-23T19:47:07.094Z,86.43
2023-04-23T19:49:33.974Z,86.49
2023-04-23T19:52:01.961Z,87.03
2023-04-23T19:54:28.877Z,87.28
2023-04-23T19:56:55.741Z,87.75
2023-04-23T19:59:22.529Z,87.90
2023-04-23T20:01:49.406Z,88.19
2023-04-23T20:04:16.552Z,88.44
2023-04-23T20:06:43.567Z,88.84
2023-04-23T20:09:18.362Z,89.16
2023-04-23T20:11:45.939Z,89.15
2023-04-23T20:14:15.643Z,89.03
2023-04-23T20:16:42.370Z,89.43
2023-04-23T20:19:11.963Z,89.26
2023-04-23T20:21:39.228Z,89.26
2023-04-23T20:24:07.649Z,89.21
2023-04-23T20:26:35.430Z,89.47
2023-04-23T20:29:02.250Z,89.51
2023-04-23T20:31:29.121Z,90.10
2023-04-23T20:33:56.414Z,90.15
2023-04-23T20:36:28.741Z,90.10
2023-04-23T20:38:58.371Z,90.09
2023-04-23T20:41:29.460Z,90.42
2023-04-23T20:43:57.161Z,90.44
2023-04-23T20:46:24.851Z,90.55
2023-04-23T20:48:53.227Z,90.61
2023-04-23T20:51:20.593Z,90.37
2023-04-23T20:53:47.527Z,90.67
2023-04-23T20:56:14.447Z,90.60
2023-04-23T20:58:41.631Z,90.59
2023-04-23T21:01:11.568Z,90.57
2023-04-23T21:03:39.022Z,90.56
2023-04-23T21:06:06.868Z,90.44
2023-04-23T21:08:33.836Z,90.88
2023-04-23T21:11:00.602Z,90.59
2023-04-23T21:13:27.334Z,89.70
2023-04-23T21:15:54.211Z,89.54
2023-04-23T21:18:21.042Z,89.50
2023-04-23T21:20:47.822Z,89.79
2023-04-23T21:23:14.630Z,90.13
2023-04-23T21:25:41.428Z,90.40
2023-04-23T21:28:08.204Z,90.51
2023-04-23T21:30:50.360Z,90.57
2023-04-23T21:33:18.092Z,90.86
2023-04-23T21:35:44.934Z,90.86
2023-04-23T21:38:11.992Z,90.73
2023-04-23T21:40:38.903Z,91.01
2023-04-23T21:43:06.197Z,91.35
2023-04-23T21:45:34.382Z,91.26
2023-04-23T21:48:01.813Z,91.27
2023-04-23T21:50:29.311Z,91.54
2023-04-23T21:52:58.679Z,91.46
2023-04-23T21:55:29.438Z,91.37
2023-04-23T21:58:03.156Z,91.34
2023-04-23T22:00:41.145Z,91.08
2023-04-23T22:03:09.182Z,91.19
2023-04-23T22:05:36.379Z,91.36
2023-04-23T22:08:03.412Z,91.16
2023-04-23T22:10:30.200Z,91.12
2023-04-23T22:12:57.200Z,91.42
2023-04-23T22:15:24.171Z,91.25
2023-04-23T22:17:51.026Z,91.26
2023-04-23T22:20:19.019Z,91.10
2023-04-23T22:22:45.985Z,91.15
2023-04-23T22:25:13.195Z,91.11
2023-04-23T22:27:41.174Z,91.00
2023-04-23T22:30:09.376Z,91.04
2023-04-23T22:32:36.539Z,90.93
2023-04-23T22:35:03.514Z,91.16
2023-04-23T22:37:31.538Z,91.46
2023-04-23T22:39:58.494Z,91.67
2023-04-23T22:42:25.436Z,91.86
2023-04-23T22:44:52.359Z,91.74
2023-04-23T22:47:19.138Z,91.67
2023-04-23T22:49:46.786Z,91.74
2023-04-23T22:52:14.570Z,91.78
2023-04-23T22:54:42.005Z,91.88
2023-04-23T22:57:09.476Z,91.24
2023-04-23T22:59:36.367Z,91.00
2023-04-23T23:02:03.116Z,90.83
2023-04-23T23:04:30.049Z,91.16
2023-04-23T23:06:56.829Z,90.98
2023-04-23T23:09:23.689Z,91.01
2023-04-23T23:11:50.394Z,91.35
2023-04-23T23:14:17.536Z,91.19
2023-04-23T23:16:44.271Z,91.45
2023-04-23T23:19:12.462Z,90.94
2023-04-23T23:21:39.859Z,91.48
2023-04-23T23:24:06.748Z,91.55
2023-04-23T23:26:33.734Z,91.54
2023-04-23T23:29:00.759Z,91.72
2023-04-23T23:31:28.674Z,91.51
2023-04-23T23:33:55.710Z,91.50
2023-04-23T23:36:22.588Z,91.29
2023-04-23T23:38:50.934Z,91.66
2023-04-23T23:41:17.967Z,91.33
2023-04-23T23:43:44.670Z,91.31
2023-04-23T23:46:12.441Z,91.49
2023-04-23T23:48:39.319Z,91.44
2023-04-23T23:51:06.161Z,91.50
2023-04-23T23:53:32.874Z,91.27
2023-04-23T23:56:00.533Z,91.51
2023-04-23T23:58:29.395Z,90.97
